createdAt,value
2022-08-02T00:01:22.270Z,21.02
2022-08-02T00:03:49.916Z,21.10
2022-08-02T00:06:17.865Z,21.03
2022-08-02T00:08:45.483Z,21.03
2022-08-02T00:11:13.276Z,20.86
2022-08-02T00:13:40.944Z,21.02
2022-08-02T00:16:10.939Z,21.06
2022-08-02T00:18:45.173Z,20.98
2022-08-02T00:21:12.836Z,20.88
2022-08-02T00:24:27.824Z,20.84
2022-08-02T00:26:29.249Z,20.71
2022-08-02T00:28:56.792Z,20.60
2022-08-02T00:31:25.707Z,20.44
2022-08-02T00:34:29.878Z,20.43
2022-08-02T00:36:40.828Z,20.49
2022-08-02T00:39:08.395Z,20.48
2022-08-02T00:41:55.885Z,20.59
2022-08-02T00:44:23.667Z,20.65
2022-08-02T00:46:52.667Z,20.72
2022-08-02T00:49:21.278Z,20.57
2022-08-02T00:51:49.018Z,20.43
2022-08-02T00:54:16.690Z,20.54
2022-08-02T00:56:49.527Z,20.50
2022-08-02T00:59:17.819Z,20.45
2022-08-02T01:01:56.489Z,20.32
2022-08-02T01:04:31.469Z,20.23
2022-08-02T01:07:00.181Z,20.21
2022-08-02T01:09:27.829Z,20.27
2022-08-02T01:11:55.514Z,20.21
2022-08-02T01:14:25.188Z,20.23
2022-08-02T01:17:00.346Z,20.17
2022-08-02T01:19:39.194Z,20.11
2022-08-02T01:22:21.172Z,20.11
2022-08-02T01:25:07.615Z,20.25
2022-08-02T01:27:50.933Z,20.16
2022-08-02T01:30:20.657Z,20.15
2022-08-02T01:32:54.612Z,20.08
2022-08-02T01:35:28.413Z,20.11
2022-08-02T01:38:02.442Z,20.05
2022-08-02T01:40:32.509Z,20.01
2022-08-02T01:43:01.686Z,19.93
2022-08-02T01:45:34.214Z,19.88
2022-08-02T01:48:04.445Z,19.86
2022-08-02T01:50:34.376Z,19.84
2022-08-02T01:53:07.985Z,19.79
2022-08-02T01:55:57.555Z,19.65
2022-08-02T01:58:30.310Z,19.55
2022-08-02T02:01:01.601Z,19.44
2022-08-02T02:03:32.102Z,19.49
2022-08-02T02:06:04.585Z,19.51
2022-08-02T02:08:36.180Z,19.60
2022-08-02T02:12:09.653Z,19.51
2022-08-02T02:13:53.599Z,19.48
2022-08-02T02:16:24.714Z,19.44
2022-08-02T02:18:53.813Z,19.35
2022-08-02T02:21:22.105Z,19.31
2022-08-02T02:23:50.737Z,19.27
2022-08-02T02:26:29.531Z,19.28
2022-08-02T02:29:02.517Z,19.21
2022-08-02T02:31:35.702Z,19.16
2022-08-02T02:34:05.483Z,19.14
2022-08-02T02:36:35.111Z,19.14
2022-08-02T02:39:11.591Z,19.17
2022-08-02T02:41:43.436Z,19.19
2022-08-02T02:44:14.434Z,19.20
2022-08-02T02:46:44.884Z,19.24
2022-08-02T02:49:14.291Z,19.30
2022-08-02T02:51:43.004Z,19.34
2022-08-02T02:54:30.519Z,19.36
2022-08-02T02:57:01.656Z,19.48
2022-08-02T02:59:29.998Z,19.40
2022-08-02T03:01:59.480Z,19.39
2022-08-02T03:04:55.482Z,19.40
2022-08-02T03:07:17.333Z,19.37
2022-08-02T03:09:45.134Z,19.37
2022-08-02T03:12:20.091Z,19.30
2022-08-02T03:14:49.460Z,19.25
2022-08-02T03:17:18.737Z,19.20
2022-08-02T03:19:46.925Z,19.25
2022-08-02T03:22:14.646Z,19.14
2022-08-02T03:24:42.352Z,19.11
2022-08-02T03:27:09.905Z,19.04
2022-08-02T03:29:37.629Z,18.95
2022-08-02T03:32:06.051Z,18.96
2022-08-02T03:34:35.052Z,18.92
2022-08-02T03:37:03.717Z,18.89
2022-08-02T03:39:33.275Z,18.87
2022-08-02T03:42:01.908Z,18.87
2022-08-02T03:44:29.945Z,18.94
2022-08-02T03:46:58.728Z,18.76
2022-08-02T03:49:26.888Z,18.67
2022-08-02T03:51:56.546Z,18.66
2022-08-02T03:54:34.814Z,18.67
2022-08-02T03:57:12.308Z,18.65
2022-08-02T03:59:44.056Z,18.64
2022-08-02T04:02:12.786Z,18.59
2022-08-02T04:04:40.973Z,18.60
2022-08-02T04:07:09.929Z,18.62
2022-08-02T04:09:37.460Z,18.65
2022-08-02T04:12:05.936Z,18.65
2022-08-02T04:14:36.116Z,18.66
2022-08-02T04:17:08.660Z,18.71
2022-08-02T04:19:41.947Z,18.74
2022-08-02T04:22:17.587Z,18.84
2022-08-02T04:24:50.433Z,18.94
2022-08-02T04:27:50.423Z,18.93
2022-08-02T04:30:10.024Z,19.06
2022-08-02T04:32:39.266Z,19.19
2022-08-02T04:35:23.235Z,19.21
2022-08-02T04:38:08.566Z,19.32
2022-08-02T04:40:38.554Z,19.49
2022-08-02T04:43:06.599Z,20.07
2022-08-02T04:45:34.445Z,20.33
2022-08-02T04:48:06.143Z,20.24
2022-08-02T04:50:34.435Z,20.20
2022-08-02T04:53:03.411Z,20.11
2022-08-02T04:55:31.018Z,20.66
2022-08-02T04:57:59.612Z,21.93
2022-08-02T05:00:28.639Z,23.94
2022-08-02T05:02:57.231Z,25.13
2022-08-02T05:05:25.284Z,25.78
2022-08-02T05:07:53.245Z,25.31
2022-08-02T05:10:22.480Z,23.26
2022-08-02T05:12:50.313Z,23.35
2022-08-02T05:15:18.562Z,23.17
2022-08-02T05:17:47.675Z,23.38
2022-08-02T05:20:17.009Z,22.80
2022-08-02T05:22:44.745Z,22.64
2022-08-02T05:25:12.684Z,22.08
2022-08-02T05:27:41.854Z,22.45
2022-08-02T05:30:10.838Z,22.85
2022-08-02T05:32:44.951Z,23.40
2022-08-02T05:35:12.792Z,24.15
2022-08-02T05:37:42.190Z,24.88
2022-08-02T05:40:12.944Z,25.21
2022-08-02T05:42:42.446Z,26.46
2022-08-02T05:45:11.218Z,27.37
2022-08-02T05:47:39.518Z,27.56
2022-08-02T05:50:08.503Z,26.12
2022-08-02T05:52:45.492Z,27.44
2022-08-02T05:55:18.255Z,28.60
2022-08-02T05:57:54.330Z,29.62
2022-08-02T06:00:23.009Z,30.08
2022-08-02T06:03:05.519Z,30.52
2022-08-02T06:05:41.358Z,31.24
2022-08-02T06:08:10.373Z,30.04
2022-08-02T06:10:39.203Z,31.53
2022-08-02T06:13:14.382Z,32.06
2022-08-02T06:15:53.408Z,32.07
2022-08-02T06:18:28.462Z,30.80
2022-08-02T06:20:58.956Z,32.03
2022-08-02T06:23:56.612Z,30.12
2022-08-02T06:26:27.807Z,30.78
2022-08-02T06:28:58.740Z,30.87
2022-08-02T06:31:26.651Z,30.69
2022-08-02T06:33:54.464Z,30.70
2022-08-02T06:36:31.141Z,30.47
2022-08-02T06:39:05.459Z,31.70
2022-08-02T06:41:40.411Z,31.34
2022-08-02T06:44:45.052Z,30.13
2022-08-02T06:47:11.065Z,30.22
2022-08-02T06:49:52.156Z,29.85
2022-08-02T06:52:28.464Z,30.33
2022-08-02T06:54:58.795Z,31.01
2022-08-02T06:57:26.522Z,31.84
2022-08-02T06:59:55.664Z,33.13
2022-08-02T07:02:23.662Z,30.42
2022-08-02T07:04:51.555Z,30.23
2022-08-02T07:07:19.811Z,31.70
2022-08-02T07:09:57.234Z,33.37
2022-08-02T07:12:30.139Z,31.95
2022-08-02T07:14:59.518Z,33.93
2022-08-02T07:17:27.679Z,31.05
2022-08-02T07:19:55.346Z,31.04
2022-08-02T07:22:24.525Z,33.19
2022-08-02T07:24:52.768Z,34.62
2022-08-02T07:27:21.179Z,33.81
2022-08-02T07:29:48.819Z,32.13
2022-08-02T07:32:19.249Z,31.16
2022-08-02T07:34:50.985Z,29.59
2022-08-02T07:37:35.836Z,28.51
2022-08-02T07:40:13.942Z,28.51
2022-08-02T07:42:43.705Z,28.87
2022-08-02T07:45:12.405Z,29.20
2022-08-02T07:47:42.523Z,30.81
2022-08-02T07:50:12.201Z,30.07
2022-08-02T07:52:40.704Z,30.50
2022-08-02T07:55:09.397Z,31.07
2022-08-02T07:57:38.130Z,31.74
2022-08-02T08:00:09.372Z,32.08
2022-08-02T08:02:37.170Z,33.03
2022-08-02T08:05:07.865Z,33.61
2022-08-02T08:07:35.893Z,32.38
2022-08-02T08:10:04.750Z,32.27
2022-08-02T08:12:32.548Z,30.01
2022-08-02T08:15:00.231Z,29.85
2022-08-02T08:17:27.937Z,28.17
2022-08-02T08:19:55.554Z,30.87
2022-08-02T08:22:24.534Z,32.01
2022-08-02T08:24:52.133Z,32.54
2022-08-02T08:27:22.699Z,32.96
2022-08-02T08:29:50.933Z,31.88
2022-08-02T08:32:19.655Z,31.06
2022-08-02T08:34:48.072Z,30.28
2022-08-02T08:37:17.057Z,29.74
2022-08-02T08:39:53.712Z,30.28
2022-08-02T08:42:27.199Z,31.81
2022-08-02T08:44:56.042Z,32.23
2022-08-02T08:47:25.038Z,32.76
2022-08-02T08:49:56.385Z,33.34
2022-08-02T08:52:26.190Z,31.76
2022-08-02T08:54:57.066Z,31.09
2022-08-02T08:57:31.474Z,31.65
2022-08-02T08:59:59.998Z,31.78
2022-08-02T09:02:28.510Z,32.10
2022-08-02T09:04:56.780Z,32.12
2022-08-02T09:07:24.340Z,31.30
2022-08-02T09:09:51.876Z,30.65
2022-08-02T09:12:24.941Z,30.57
2022-08-02T09:14:52.800Z,29.55
2022-08-02T09:17:21.905Z,29.42
2022-08-02T09:20:07.503Z,27.88
2022-08-02T09:22:35.359Z,28.47
2022-08-02T09:25:02.961Z,28.60
2022-08-02T09:27:37.203Z,29.01
2022-08-02T09:30:13.682Z,27.20
2022-08-02T09:32:46.439Z,27.77
2022-08-02T09:35:15.256Z,28.46
2022-08-02T09:37:48.388Z,27.32
2022-08-02T09:40:16.678Z,26.99
2022-08-02T09:42:59.221Z,26.88
2022-08-02T09:45:31.594Z,27.49
2022-08-02T09:47:59.294Z,27.79
2022-08-02T09:50:27.185Z,28.05
2022-08-02T09:52:56.902Z,28.24
2022-08-02T09:55:25.342Z,28.36
2022-08-02T09:57:54.342Z,28.50
2022-08-02T10:00:36.963Z,28.07
2022-08-02T10:03:08.943Z,28.36
2022-08-02T10:05:55.763Z,28.28
2022-08-02T10:08:25.771Z,28.72
2022-08-02T10:11:00.474Z,29.13
2022-08-02T10:13:31.610Z,29.17
2022-08-02T10:15:59.436Z,29.53
2022-08-02T10:18:42.301Z,29.50
2022-08-02T10:21:15.416Z,28.85
2022-08-02T10:23:46.043Z,28.25
2022-08-02T10:26:19.124Z,28.70
2022-08-02T10:28:50.500Z,28.81
2022-08-02T10:31:21.861Z,29.14
2022-08-02T10:33:52.909Z,29.26
2022-08-02T10:36:23.506Z,29.24
2022-08-02T10:38:51.671Z,29.18
2022-08-02T10:41:48.097Z,29.42
2022-08-02T10:44:25.693Z,29.58
2022-08-02T10:46:54.513Z,29.74
2022-08-02T10:49:39.285Z,29.76
2022-08-02T10:52:11.482Z,29.67
2022-08-02T10:54:40.937Z,29.73
2022-08-02T10:57:21.048Z,29.91
2022-08-02T10:59:51.318Z,29.75
2022-08-02T11:02:37.180Z,29.74
2022-08-02T11:05:08.871Z,29.74
2022-08-02T11:07:39.028Z,29.71
2022-08-02T11:10:29.590Z,30.07
2022-08-02T11:13:03.465Z,30.41
2022-08-02T11:15:49.457Z,30.55
2022-08-02T11:18:17.139Z,30.57
2022-08-02T11:20:45.013Z,30.35
2022-08-02T11:23:44.437Z,30.06
2022-08-02T11:26:46.180Z,30.32
2022-08-02T11:29:15.819Z,30.29
2022-08-02T11:31:46.382Z,30.32
2022-08-02T11:34:36.422Z,30.10
2022-08-02T11:37:02.402Z,30.31
2022-08-02T11:39:30.216Z,30.27
2022-08-02T11:42:00.325Z,30.12
2022-08-02T11:44:29.573Z,29.86
2022-08-02T11:47:00.321Z,30.12
2022-08-02T11:49:29.135Z,30.02
2022-08-02T11:52:01.708Z,29.61
2022-08-02T11:54:31.727Z,29.71
2022-08-02T11:57:14.445Z,30.12
2022-08-02T11:59:48.014Z,30.14
2022-08-02T12:02:18.764Z,30.37
2022-08-02T12:04:54.690Z,29.98
2022-08-02T12:07:34.566Z,29.94
2022-08-02T12:10:06.003Z,30.01
2022-08-02T12:12:34.004Z,30.19
2022-08-02T12:15:01.625Z,30.41
2022-08-02T12:17:48.364Z,30.44
2022-08-02T12:20:17.172Z,30.56
2022-08-02T12:22:45.146Z,30.77
2022-08-02T12:25:33.543Z,31.04
2022-08-02T12:28:18.014Z,31.21
2022-08-02T12:30:54.504Z,31.30
2022-08-02T12:33:24.541Z,31.48
2022-08-02T12:35:52.502Z,31.62
2022-08-02T12:38:20.494Z,31.46
2022-08-02T12:40:49.051Z,31.22
2022-08-02T12:43:23.744Z,30.28
2022-08-02T12:45:53.928Z,30.73
2022-08-02T12:48:37.369Z,30.72
2022-08-02T12:51:20.265Z,30.77
2022-08-02T12:53:48.314Z,30.57
2022-08-02T12:56:28.940Z,30.67
2022-08-02T12:58:56.879Z,30.71
2022-08-02T13:01:26.818Z,30.99
2022-08-02T13:04:11.065Z,30.76
2022-08-02T13:06:43.956Z,31.19
2022-08-02T13:09:14.128Z,31.46
2022-08-02T13:11:42.975Z,31.29
2022-08-02T13:14:11.595Z,31.64
2022-08-02T13:16:39.234Z,31.28
2022-08-02T13:19:08.228Z,31.16
2022-08-02T13:21:40.947Z,31.42
2022-08-02T13:24:39.817Z,31.45
2022-08-02T13:27:09.614Z,31.71
2022-08-02T13:29:37.593Z,31.73
2022-08-02T13:32:05.475Z,31.31
2022-08-02T13:34:34.593Z,31.62
2022-08-02T13:37:02.559Z,31.28
2022-08-02T13:39:30.219Z,30.84
2022-08-02T13:41:57.785Z,31.05
2022-08-02T13:44:25.381Z,30.25
2022-08-02T13:46:53.053Z,30.55
2022-08-02T13:49:20.691Z,31.00
2022-08-02T13:51:51.262Z,31.22
2022-08-02T13:54:19.239Z,31.29
2022-08-02T13:56:46.856Z,31.50
2022-08-02T13:59:53.988Z,31.35
2022-08-02T14:02:02.444Z,31.22
2022-08-02T14:04:31.028Z,31.15
2022-08-02T14:07:00.053Z,31.28
2022-08-02T14:09:28.105Z,30.96
2022-08-02T14:11:55.732Z,31.24
2022-08-02T14:14:23.302Z,31.53
2022-08-02T14:16:51.224Z,31.02
2022-08-02T14:19:21.694Z,30.72
2022-08-02T14:21:49.403Z,31.12
2022-08-02T14:24:19.798Z,31.12
2022-08-02T14:26:48.582Z,31.34
2022-08-02T14:29:17.067Z,31.47
2022-08-02T14:31:45.278Z,31.32
2022-08-02T14:34:13.218Z,30.79
2022-08-02T14:36:42.311Z,30.90
2022-08-02T14:39:10.259Z,31.19
2022-08-02T14:41:59.531Z,31.29
2022-08-02T14:44:27.252Z,31.41
2022-08-02T14:46:54.884Z,31.63
2022-08-02T14:49:24.585Z,31.41
2022-08-02T14:51:54.230Z,31.46
2022-08-02T14:54:27.804Z,31.54
2022-08-02T14:57:00.423Z,31.56
2022-08-02T14:59:28.298Z,31.68
2022-08-02T15:01:56.097Z,31.62
2022-08-02T15:04:23.858Z,31.71
2022-08-02T15:06:51.678Z,31.80
2022-08-02T15:09:20.037Z,31.61
2022-08-02T15:11:49.331Z,31.41
2022-08-02T15:14:21.992Z,31.43
2022-08-02T15:16:58.440Z,31.30
2022-08-02T15:19:40.868Z,31.31
2022-08-02T15:22:16.600Z,31.25
2022-08-02T15:24:46.789Z,31.24
2022-08-02T15:27:15.279Z,31.35
2022-08-02T15:29:46.359Z,31.24
2022-08-02T15:32:15.395Z,31.28
2022-08-02T15:34:43.236Z,31.53
2022-08-02T15:37:11.081Z,31.62
2022-08-02T15:39:39.458Z,30.95
2022-08-02T15:42:07.158Z,30.09
2022-08-02T15:44:34.798Z,30.82
2022-08-02T15:47:07.156Z,30.91
2022-08-02T15:49:39.373Z,31.02
2022-08-02T15:52:08.780Z,31.17
2022-08-02T15:54:36.360Z,31.23
2022-08-02T15:57:03.987Z,31.13
2022-08-02T15:59:31.656Z,31.20
2022-08-02T16:01:59.335Z,31.23
2022-08-02T16:04:28.258Z,31.10
2022-08-02T16:06:55.909Z,31.06
2022-08-02T16:09:23.625Z,30.96
2022-08-02T16:11:51.550Z,31.07
2022-08-02T16:14:19.255Z,31.20
2022-08-02T16:16:46.838Z,31.25
2022-08-02T16:19:46.214Z,31.26
2022-08-02T16:22:03.354Z,31.15
2022-08-02T16:24:31.655Z,31.14
2022-08-02T16:26:59.634Z,31.09
2022-08-02T16:29:27.305Z,30.11
2022-08-02T16:32:01.247Z,30.57
2022-08-02T16:34:40.265Z,30.21
2022-08-02T16:37:17.713Z,30.26
2022-08-02T16:39:45.291Z,30.24
2022-08-02T16:42:12.843Z,30.13
2022-08-02T16:44:53.290Z,30.11
2022-08-02T16:47:21.366Z,30.08
2022-08-02T16:50:10.594Z,29.96
2022-08-02T16:52:40.035Z,29.95
2022-08-02T16:55:10.943Z,30.00
2022-08-02T16:57:42.576Z,29.93
2022-08-02T17:00:13.101Z,29.80
2022-08-02T17:02:43.150Z,29.75
2022-08-02T17:05:14.336Z,29.73
2022-08-02T17:08:15.303Z,29.74
2022-08-02T17:10:33.470Z,29.56
2022-08-02T17:13:11.550Z,29.42
2022-08-02T17:16:01.155Z,29.41
2022-08-02T17:18:28.177Z,29.33
2022-08-02T17:20:56.170Z,29.24
2022-08-02T17:24:05.579Z,29.28
2022-08-02T17:26:13.186Z,29.17
2022-08-02T17:28:56.527Z,29.16
2022-08-02T17:31:29.826Z,28.96
2022-08-02T17:33:58.485Z,29.03
2022-08-02T17:36:26.260Z,29.05
2022-08-02T17:38:55.240Z,29.02
2022-08-02T17:41:37.749Z,28.90
2022-08-02T17:44:08.487Z,28.84
2022-08-02T17:46:37.080Z,28.69
2022-08-02T17:49:17.271Z,28.59
2022-08-02T17:52:49.255Z,28.45
2022-08-02T17:54:34.848Z,28.34
2022-08-02T17:57:02.529Z,28.25
2022-08-02T17:59:42.043Z,28.29
2022-08-02T18:02:11.547Z,28.24
2022-08-02T18:04:39.352Z,28.16
2022-08-02T18:07:09.719Z,28.07
2022-08-02T18:09:43.517Z,28.00
2022-08-02T18:12:14.258Z,27.94
2022-08-02T18:14:48.886Z,27.84
2022-08-02T18:17:17.645Z,27.81
2022-08-02T18:19:57.411Z,27.73
2022-08-02T18:22:27.136Z,27.64
2022-08-02T18:24:56.189Z,27.56
2022-08-02T18:27:23.912Z,27.55
2022-08-02T18:30:00.005Z,27.48
2022-08-02T18:33:55.681Z,27.43
2022-08-02T18:35:20.349Z,27.36
2022-08-02T18:37:57.063Z,27.34
2022-08-02T18:40:29.900Z,27.26
2022-08-02T18:42:57.600Z,27.25
2022-08-02T18:45:43.302Z,27.16
2022-08-02T18:48:17.527Z,27.05
2022-08-02T18:50:46.925Z,27.02
2022-08-02T18:53:16.303Z,26.95
2022-08-02T18:55:59.901Z,26.88
2022-08-02T18:58:32.005Z,26.85
2022-08-02T19:01:00.720Z,26.76
2022-08-02T19:03:49.281Z,26.65
2022-08-02T19:06:19.836Z,26.61
2022-08-02T19:09:05.963Z,26.50
2022-08-02T19:11:37.259Z,26.43
2022-08-02T19:14:05.093Z,26.39
2022-08-02T19:16:36.611Z,26.37
2022-08-02T19:19:05.858Z,26.28
2022-08-02T19:22:17.740Z,26.24
2022-08-02T19:24:21.336Z,26.15
2022-08-02T19:26:51.870Z,26.02
2022-08-02T19:29:42.259Z,25.95
2022-08-02T19:32:40.688Z,25.86
2022-08-02T19:34:58.416Z,25.83
2022-08-02T19:37:26.114Z,25.80
2022-08-02T19:40:05.539Z,25.74
2022-08-02T19:43:00.012Z,25.66
2022-08-02T19:45:45.053Z,25.58
2022-08-02T19:48:14.433Z,25.54
2022-08-02T19:50:44.280Z,25.48
2022-08-02T19:53:17.974Z,25.44
2022-08-02T19:55:58.240Z,25.41
2022-08-02T19:58:32.465Z,25.36
2022-08-02T20:01:00.264Z,25.33
2022-08-02T20:03:50.833Z,25.32
2022-08-02T20:06:17.805Z,25.30
2022-08-02T20:08:53.384Z,25.31
2022-08-02T20:11:25.033Z,25.28
2022-08-02T20:13:54.015Z,25.28
2022-08-02T20:16:27.784Z,25.35
2022-08-02T20:18:56.164Z,25.20
2022-08-02T20:21:36.520Z,25.14
2022-08-02T20:24:07.241Z,25.06
2022-08-02T20:26:35.162Z,24.96
2022-08-02T20:29:04.758Z,24.89
2022-08-02T20:31:32.420Z,24.80
2022-08-02T20:34:00.037Z,24.71
2022-08-02T20:36:28.692Z,24.61
2022-08-02T20:38:56.481Z,24.56
2022-08-02T20:41:37.036Z,24.51
2022-08-02T20:44:15.772Z,24.48
2022-08-02T20:46:59.262Z,24.49
2022-08-02T20:49:41.159Z,24.46
2022-08-02T20:52:23.357Z,24.45
2022-08-02T20:54:52.753Z,24.43
2022-08-02T20:57:36.081Z,24.49
2022-08-02T21:00:11.599Z,24.42
2022-08-02T21:02:39.201Z,24.30
2022-08-02T21:05:17.573Z,24.28
2022-08-02T21:07:47.742Z,24.24
2022-08-02T21:10:15.738Z,24.35
2022-08-02T21:12:45.231Z,24.37
2022-08-02T21:15:14.791Z,24.40
2022-08-02T21:17:46.672Z,24.34
2022-08-02T21:20:27.347Z,24.33
2022-08-02T21:22:57.850Z,24.24
2022-08-02T21:25:50.551Z,24.21
2022-08-02T21:28:17.706Z,24.13
2022-08-02T21:30:46.793Z,24.12
2022-08-02T21:33:18.914Z,24.09
2022-08-02T21:35:52.209Z,24.02
2022-08-02T21:38:35.541Z,23.94
2022-08-02T21:41:06.066Z,23.89
2022-08-02T21:43:40.124Z,23.92
2022-08-02T21:46:09.165Z,23.84
2022-08-02T21:48:42.347Z,23.84
2022-08-02T21:51:10.619Z,23.75
2022-08-02T21:53:43.799Z,23.75
2022-08-02T21:56:31.551Z,23.73
2022-08-02T21:59:00.036Z,23.71
2022-08-02T22:01:31.428Z,23.64
2022-08-02T22:03:59.233Z,23.60
2022-08-02T22:06:26.960Z,23.51
2022-08-02T22:08:55.124Z,23.46
2022-08-02T22:11:22.999Z,23.44
2022-08-02T22:13:51.146Z,23.45
2022-08-02T22:16:19.090Z,23.57
2022-08-02T22:18:51.511Z,23.50
2022-08-02T22:21:20.736Z,23.55
2022-08-02T22:23:51.329Z,23.45
2022-08-02T22:26:19.755Z,23.46
2022-08-02T22:31:40.915Z,23.30
2022-08-02T22:34:26.779Z,23.25
2022-08-02T22:36:58.498Z,23.19
2022-08-02T22:39:26.115Z,23.03
2022-08-02T22:42:06.380Z,22.91
2022-08-02T22:44:35.545Z,22.88
2022-08-02T22:47:13.739Z,22.88
2022-08-02T22:49:51.551Z,22.79
2022-08-02T22:52:22.401Z,22.86
2022-08-02T22:54:50.920Z,22.83
2022-08-02T22:57:30.778Z,22.73
2022-08-02T22:59:04.977Z,23.44
2022-08-02T22:59:59.796Z,22.93
2022-08-02T23:02:27.408Z,22.75
2022-08-02T23:04:56.666Z,22.57
2022-08-02T23:07:24.297Z,22.52
2022-08-02T23:09:51.935Z,22.44
2022-08-02T23:12:20.206Z,22.42
2022-08-02T23:14:48.416Z,22.30
2022-08-02T23:17:33.938Z,22.21
2022-08-02T23:20:03.212Z,22.25
2022-08-02T23:22:32.161Z,22.16
2022-08-02T23:25:01.365Z,22.00
2022-08-02T23:27:29.667Z,21.98
2022-08-02T23:29:57.746Z,22.04
2022-08-02T23:32:26.020Z,22.08
2022-08-02T23:34:54.153Z,21.96
2022-08-02T23:37:23.800Z,21.95
2022-08-02T23:39:51.563Z,21.90
2022-08-02T23:42:19.683Z,21.90
2022-08-02T23:44:47.552Z,21.77
2022-08-02T23:47:16.919Z,21.76
2022-08-02T23:49:44.944Z,21.71
2022-08-02T23:52:13.179Z,21.62
2022-08-02T23:54:42.437Z,21.57
2022-08-02T23:57:20.937Z,21.57
2022-08-02T23:59:51.155Z,21.50
